GW6071 Weather Reports


Display with metric or nautical units.
time (UTC)temp
F
wind
direction
speed
MPH
gust
MPH
rain 1hr
in
rain 24hr
in
rain mn
in
humidity
%
barometer
mb
20260906223017 95 197 4.0 9.0 0.00 0.00 0.00 42 1011.9
20260906221533 96 116 8.0 12.0 0.00 0.00 0.00 40 1012.0
20260906220006 95 119 6.0 11.0 0.00 0.00 0.00 40 1012.2
20260906214507 96 114 5.0 8.0 0.00 0.00 0.00 40 1012.3
20260906213011 97 93 8.0 11.0 0.00 0.00 0.00 40 1012.5
20260906211521 96 133 9.0 13.0 0.00 0.00 0.00 39 1012.7
20260906210006 98 115 4.0 15.0 0.00 0.00 0.00 38 1012.7
20260906204508 98 111 10.0 15.0 0.00 0.00 0.00 39 1013.0
20260906203013 97 140 4.0 12.0 0.00 0.00 0.00 40 1013.0
20260906201518 97 109 11.0 15.0 0.00 0.00 0.00 41 1013.2
20260906200024 97 130 5.0 14.0 0.00 0.00 0.00 40 1013.4
20260906194504 95 80 3.0 17.0 0.00 0.00 0.00 42 1013.6
20260906193010 97 190 5.0 16.0 0.00 0.00 0.00 41 1013.6
20260906191518 96 174 7.0 12.0 0.00 0.00 0.00 42 1013.8
20260906190027 96 135 5.0 11.0 0.00 0.00 0.00 41 1014.0
20260906184529 94 113 3.0 12.0 0.00 0.00 0.00 44 1014.2
20260906183012 94 94 4.0 12.0 0.00 0.00 0.00 43 1014.5
20260906181519 94 147 1.0 8.0 0.00 0.00 0.00 45 1014.6
20260906180037 94 155 5.0 15.0 0.00 0.00 0.00 44 1015.0
20260906174530 94 33 2.0 8.0 0.00 0.00 0.00 46 1015.2
20260906173007 94 180 3.0 11.0 0.00 0.00 0.00 44 1015.4
20260906171515 93 300 2.0 10.0 0.00 0.00 0.00 46 1015.6
20260906170021 93 107 2.0 11.0 0.00 0.00 0.00 45 1015.7
20260906164527 92 132 2.0 10.0 0.00 0.00 0.00 49 1016.0
20260906163032 92 284 2.0 11.0 0.00 0.00 0.00 48 1016.0
20260906161514 91 12 4.0 9.0 0.00 0.00 0.00 51 1016.1
20260906160028 90 141 0.0 7.0 0.00 0.00 0.00 52 1016.0
20260906154525 89 47 2.0 5.0 0.00 0.00 0.00 55 1016.1
20260906153032 87 313 2.0 6.0 0.00 0.00 0.00 58 1016.1
20260906151508 87 271 3.0 7.0 0.00 0.00 0.00 59 1016.1
20260906150014 86 271 3.0 4.0 0.00 0.00 0.00 60 1016.0
20260906144524 84 202 1.0 4.0 0.00 0.00 0.00 63 1016.0
20260906143027 84 295 2.0 4.0 0.00 0.00 0.00 63 1015.9
20260906141530 84 245 0.0 2.0 0.00 0.00 0.00 66 1015.8
20260906140013 82 180 1.0 4.0 0.00 0.00 0.00 69 1015.8
20260906134518 80 187 1.0 3.0 0.00 0.00 0.00 71 1015.8
20260906133029 79 137 0.0 2.0 0.00 0.00 0.00 75 1015.6
20260906131530 76 148 0.0 0.0 0.00 0.00 0.00 79 1015.6
20260906130032 75 148 0.0 0.0 0.00 0.00 0.00 82 1015.4
20260906124518 73 147 0.0 0.0 0.00 0.00 0.00 84 1015.3
20260906123025 72 147 0.0 0.0 0.00 0.00 0.00 1015.1
20260906121511 72 147 0.0 0.0 0.00 0.00 0.00 84 1014.9
20260906120013 72 147 0.0 0.0 0.00 0.00 0.00 83 1014.7
20260906114534 73 147 0.0 1.0 0.00 0.00 0.00 82 1014.6
20260906113026 73 148 0.0 2.0 0.00 0.00 0.00 82 1014.5
20260906111529 74 147 0.0 0.0 0.00 0.00 0.00 80 1014.4
20260906110012 74 148 0.0 2.0 0.00 0.00 0.00 80 1014.3
20260906104521 74 147 1.0 2.0 0.00 0.00 0.00 80 1014.3
20260906103023 75 147 0.0 0.0 0.00 0.00 0.00 79 1014.2
20260906101528 75 147 0.0 2.0 0.00 0.00 0.00 78 1014.2
20260906100037 75 147 0.0 2.0 0.00 0.00 0.00 78 1014.1
20260906094514 76 148 0.0 0.0 0.00 0.00 0.00 77 1014.2
20260906093023 76 139 0.0 2.0 0.00 0.00 0.00 77 1014.1
20260906091527 75 139 0.0 2.0 0.00 0.00 0.00 77 1014.1
20260906090031 76 139 0.0 0.0 0.00 0.00 0.00 76 1014.0
20260906084510 76 139 0.0 2.0 0.00 0.00 0.00 76 1014.0
20260906083017 76 139 0.0 2.0 0.00 0.00 0.00 75 1013.9
20260906081524 77 139 1.0 1.0 0.00 0.00 0.00 74 1013.8
20260906080029 77 139 1.0 2.0 0.00 0.00 0.00 73 1014.1
20260906074532 78 139 1.0 2.0 0.00 0.00 0.00 72 1014.0
20260906073019 78 162 0.0 2.0 0.00 0.00 0.00 71 1013.9
20260906071523 78 146 0.0 2.0 0.00 0.00 0.00 70 1014.1
20260906070027 79 190 2.0 6.0 0.00 0.00 0.00 70 1014.3
20260906064531 79 148 1.0 3.0 0.00 0.00 0.00 69 1014.4
20260906063015 79 172 0.0 3.0 0.00 0.00 0.00 69 1014.5
20260906061519 80 142 1.0 3.0 0.00 0.00 0.00 68 1014.7
20260906060027 81 138 3.0 4.0 0.00 0.00 0.00 68 1015.0
20260906054542 81 138 3.0 4.0 0.00 0.00 0.00 66 1014.9
20260906053034 82 155 2.0 6.0 0.00 0.00 0.00 66 1014.7
20260906051518 82 163 3.0 8.0 0.00 0.00 0.00 65 1014.9
20260906050027 82 136 2.0 5.0 0.00 0.00 0.00 65 1014.7
20260906044531 82 129 4.0 7.0 0.00 0.00 0.00 65 1014.9
20260906043032 83 139 3.0 7.0 0.00 0.00 0.00 63 1014.7
20260906041514 83 149 1.0 7.0 0.00 0.00 0.00 61 1014.5
20260906040041 84 137 3.0 8.0 0.00 0.00 0.00 59 1014.5
20260906034530 85 144 6.0 10.0 0.00 0.00 0.00 58 1014.4
20260906033045 86 132 7.0 12.0 0.00 0.00 0.00 56 1014.2
20260906031531 86 113 7.0 10.0 0.00 0.00 0.00 53 1014.1
20260906030023 86 107 4.0 8.0 0.00 0.00 0.00 52 1013.9
20260906024531 87 118 3.0 5.0 0.00 0.00 0.00 51 1013.7
20260906023028 87 119 4.0 7.0 0.00 0.00 0.00 50 1013.5
20260906021510 88 119 4.0 6.0 0.00 0.00 0.00 49 1013.3
20260906020018 88 115 3.0 6.0 0.00 0.00 0.00 48 1013.1
20260906014529 88 103 2.0 3.0 0.00 0.00 0.00 48 1012.9
20260906013033 89 135 0.0 2.0 0.00 0.00 0.00 48 1012.7
20260906011515 90 135 0.0 2.0 0.00 0.00 0.00 46 1012.5
20260906010019 91 117 2.0 6.0 0.00 0.00 0.00 45 1012.4
20260906004526 92 136 4.0 6.0 0.00 0.00 0.00 43 1012.3
20260906003031 93 149 4.0 9.0 0.00 0.00 0.00 41 1012.3
20260906001533 94 163 4.0 9.0 0.00 0.00 0.00 40 1012.2
20260906000017 95 136 5.0 10.0 0.00 0.00 0.00 38 1012.2
20260905234524 95 115 5.0 8.0 0.00 0.00 0.00 37 1012.0
20260905233029 96 112 8.0 11.0 0.00 0.00 0.00 36 1012.0
20260905231517 96 155 6.0 16.0 0.00 0.00 0.00 37 1012.0
20260905230012 97 136 5.0 10.0 0.00 0.00 0.00 36 1011.8
20260905224549 97 179 5.0 13.0 0.00 0.00 0.00 35 1011.9